sensor_id;sensor_type;location;lat;lon;timestamp;pressure;altitude;pressure_sealevel;temperature;humidity
48968;BME280;46511;53.148;8.204;2023-03-13T00:00:26;100212.06;;;10.16;100.00
48968;BME280;46511;53.148;8.204;2023-03-13T00:02:57;100201.44;;;10.16;100.00
48968;BME280;46511;53.148;8.204;2023-03-13T00:05:29;100202.69;;;10.10;100.00
48968;BME280;46511;53.148;8.204;2023-03-13T00:08:00;100199.75;;;10.15;100.00
48968;BME280;46511;53.148;8.204;2023-03-13T00:10:31;100186.84;;;10.23;100.00
48968;BME280;46511;53.148;8.204;2023-03-13T00:13:02;100188.34;;;10.13;100.00
48968;BME280;46511;53.148;8.204;2023-03-13T00:15:34;100183.00;;;10.00;100.00
48968;BME280;46511;53.148;8.204;2023-03-13T00:18:05;100177.00;;;10.25;100.00
48968;BME280;46511;53.148;8.204;2023-03-13T00:20:37;100177.75;;;10.27;100.00
48968;BME280;46511;53.148;8.204;2023-03-13T00:23:08;100170.06;;;10.22;100.00
48968;BME280;46511;53.148;8.204;2023-03-13T00:25:39;100165.06;;;10.03;100.00
48968;BME280;46511;53.148;8.204;2023-03-13T00:28:10;100163.56;;;9.99;100.00
48968;BME280;46511;53.148;8.204;2023-03-13T00:30:42;100161.22;;;9.95;100.00
48968;BME280;46511;53.148;8.204;2023-03-13T00:33:13;100157.31;;;10.00;100.00
48968;BME280;46511;53.148;8.204;2023-03-13T00:35:44;100155.97;;;10.08;100.00
48968;BME280;46511;53.148;8.204;2023-03-13T00:38:15;100145.38;;;9.93;100.00
48968;BME280;46511;53.148;8.204;2023-03-13T00:40:47;100146.69;;;10.00;100.00
48968;BME280;46511;53.148;8.204;2023-03-13T00:43:18;100135.91;;;9.89;100.00
48968;BME280;46511;53.148;8.204;2023-03-13T00:45:49;100129.09;;;9.85;100.00
48968;BME280;46511;53.148;8.204;2023-03-13T00:48:21;100125.66;;;9.97;100.00
48968;BME280;46511;53.148;8.204;2023-03-13T00:50:52;100125.31;;;9.89;100.00
48968;BME280;46511;53.148;8.204;2023-03-13T00:53:24;100125.44;;;10.15;100.00
48968;BME280;46511;53.148;8.204;2023-03-13T00:58:29;100108.66;;;9.73;100.00
48968;BME280;46511;53.148;8.204;2023-03-13T01:01:16;100103.53;;;9.84;100.00
48968;BME280;46511;53.148;8.204;2023-03-13T01:03:53;100097.91;;;9.62;100.00
48968;BME280;46511;53.148;8.204;2023-03-13T01:06:27;100088.34;;;9.59;100.00
48968;BME280;46511;53.148;8.204;2023-03-13T01:09:00;100074.13;;;9.60;100.00
48968;BME280;46511;53.148;8.204;2023-03-13T01:11:36;100072.81;;;9.53;100.00
48968;BME280;46511;53.148;8.204;2023-03-13T01:14:16;100065.16;;;9.49;100.00
48968;BME280;46511;53.148;8.204;2023-03-13T01:16:49;100055.38;;;9.63;100.00
48968;BME280;46511;53.148;8.204;2023-03-13T01:19:20;100049.41;;;9.60;100.00
48968;BME280;46511;53.148;8.204;2023-03-13T01:21:52;100054.19;;;9.40;100.00
48968;BME280;46511;53.148;8.204;2023-03-13T01:24:23;100036.19;;;9.45;100.00
48968;BME280;46511;53.148;8.204;2023-03-13T01:26:54;100042.69;;;9.54;100.00
48968;BME280;46511;53.148;8.204;2023-03-13T01:29:25;100033.25;;;9.50;100.00
48968;BME280;46511;53.148;8.204;2023-03-13T01:31:57;100022.91;;;9.45;100.00
48968;BME280;46511;53.148;8.204;2023-03-13T01:34:28;100016.88;;;9.43;100.00
48968;BME280;46511;53.148;8.204;2023-03-13T01:36:59;100006.13;;;9.32;100.00
48968;BME280;46511;53.148;8.204;2023-03-13T01:39:31;100001.34;;;9.37;100.00
48968;BME280;46511;53.148;8.204;2023-03-13T01:42:02;99994.22;;;9.52;100.00
48968;BME280;46511;53.148;8.204;2023-03-13T01:44:48;99987.91;;;9.40;100.00
48968;BME280;46511;53.148;8.204;2023-03-13T01:47:21;99979.97;;;9.40;100.00
48968;BME280;46511;53.148;8.204;2023-03-13T01:49:52;99971.00;;;9.56;100.00
48968;BME280;46511;53.148;8.204;2023-03-13T01:52:26;99973.34;;;9.33;100.00
48968;BME280;46511;53.148;8.204;2023-03-13T01:55:02;99965.44;;;9.46;100.00
48968;BME280;46511;53.148;8.204;2023-03-13T01:57:41;99955.13;;;9.29;100.00
48968;BME280;46511;53.148;8.204;2023-03-13T02:00:14;99947.41;;;9.38;100.00
48968;BME280;46511;53.148;8.204;2023-03-13T02:02:57;99939.59;;;9.50;100.00
48968;BME280;46511;53.148;8.204;2023-03-13T02:05:37;99923.09;;;9.32;100.00
48968;BME280;46511;53.148;8.204;2023-03-13T02:08:28;99923.13;;;9.44;100.00
48968;BME280;46511;53.148;8.204;2023-03-13T02:13:36;99906.84;;;9.51;100.00
48968;BME280;46511;53.148;8.204;2023-03-13T02:16:08;99905.63;;;9.69;100.00
48968;BME280;46511;53.148;8.204;2023-03-13T02:18:39;99892.22;;;9.58;100.00
48968;BME280;46511;53.148;8.204;2023-03-13T02:21:17;99887.59;;;9.34;100.00
48968;BME280;46511;53.148;8.204;2023-03-13T02:26:50;99869.50;;;9.54;100.00
48968;BME280;46511;53.148;8.204;2023-03-13T02:29:22;99864.81;;;9.44;100.00
48968;BME280;46511;53.148;8.204;2023-03-13T02:31:55;99861.97;;;9.48;100.00
48968;BME280;46511;53.148;8.204;2023-03-13T02:34:27;99857.44;;;9.62;100.00
48968;BME280;46511;53.148;8.204;2023-03-13T02:37:02;99844.72;;;9.80;100.00
48968;BME280;46511;53.148;8.204;2023-03-13T02:39:38;99835.94;;;9.67;100.00
48968;BME280;46511;53.148;8.204;2023-03-13T02:42:13;99834.19;;;9.66;100.00
48968;BME280;46511;53.148;8.204;2023-03-13T02:44:47;99829.22;;;9.49;100.00
48968;BME280;46511;53.148;8.204;2023-03-13T02:47:21;99820.66;;;9.58;100.00
48968;BME280;46511;53.148;8.204;2023-03-13T02:49:54;99813.84;;;9.66;100.00
48968;BME280;46511;53.148;8.204;2023-03-13T02:52:27;99805.47;;;9.60;100.00
48968;BME280;46511;53.148;8.204;2023-03-13T02:55:02;99803.97;;;9.56;100.00
48968;BME280;46511;53.148;8.204;2023-03-13T02:57:37;99801.13;;;9.59;100.00
48968;BME280;46511;53.148;8.204;2023-03-13T03:00:09;99791.66;;;9.55;100.00
48968;BME280;46511;53.148;8.204;2023-03-13T03:02:43;99787.25;;;9.68;100.00
48968;BME280;46511;53.148;8.204;2023-03-13T03:05:14;99783.09;;;9.64;100.00
48968;BME280;46511;53.148;8.204;2023-03-13T03:07:46;99758.25;;;9.65;100.00
48968;BME280;46511;53.148;8.204;2023-03-13T03:10:18;99763.03;;;9.60;100.00
48968;BME280;46511;53.148;8.204;2023-03-13T03:12:49;99758.81;;;9.57;100.00
48968;BME280;46511;53.148;8.204;2023-03-13T03:15:20;99750.84;;;9.44;100.00
48968;BME280;46511;53.148;8.204;2023-03-13T03:17:53;99745.97;;;9.51;100.00
48968;BME280;46511;53.148;8.204;2023-03-13T03:20:24;99739.69;;;9.65;100.00
48968;BME280;46511;53.148;8.204;2023-03-13T03:22:55;99726.78;;;9.48;100.00
48968;BME280;46511;53.148;8.204;2023-03-13T03:25:22;99717.84;;;9.61;100.00
48968;BME280;46511;53.148;8.204;2023-03-13T03:27:53;99721.25;;;9.25;100.00
48968;BME280;46511;53.148;8.204;2023-03-13T03:30:24;99702.59;;;9.52;100.00
48968;BME280;46511;53.148;8.204;2023-03-13T03:32:55;99703.22;;;9.30;100.00
48968;BME280;46511;53.148;8.204;2023-03-13T03:35:27;99690.31;;;9.38;100.00
48968;BME280;46511;53.148;8.204;2023-03-13T03:37:58;99684.06;;;9.39;100.00
48968;BME280;46511;53.148;8.204;2023-03-13T03:40:29;99691.03;;;9.40;100.00
48968;BME280;46511;53.148;8.204;2023-03-13T03:43:01;99675.88;;;9.42;100.00
48968;BME280;46511;53.148;8.204;2023-03-13T03:45:32;99676.31;;;9.49;100.00
48968;BME280;46511;53.148;8.204;2023-03-13T03:48:03;99660.34;;;9.74;100.00
48968;BME280;46511;53.148;8.204;2023-03-13T03:50:35;99661.66;;;9.69;100.00
48968;BME280;46511;53.148;8.204;2023-03-13T03:53:06;99649.00;;;9.72;100.00
48968;BME280;46511;53.148;8.204;2023-03-13T03:55:37;99656.44;;;9.55;100.00
48968;BME280;46511;53.148;8.204;2023-03-13T03:58:09;99635.13;;;9.69;100.00
48968;BME280;46511;53.148;8.204;2023-03-13T04:00:44;99634.31;;;9.92;100.00
48968;BME280;46511;53.148;8.204;2023-03-13T04:03:16;99629.09;;;9.67;100.00
48968;BME280;46511;53.148;8.204;2023-03-13T04:05:47;99615.22;;;9.51;100.00
48968;BME280;46511;53.148;8.204;2023-03-13T04:08:18;99606.63;;;9.60;100.00
48968;BME280;46511;53.148;8.204;2023-03-13T04:10:50;99603.97;;;9.60;100.00
48968;BME280;46511;53.148;8.204;2023-03-13T04:13:21;99592.53;;;9.47;100.00
48968;BME280;46511;53.148;8.204;2023-03-13T04:15:52;99591.28;;;9.39;100.00
48968;BME280;46511;53.148;8.204;2023-03-13T04:18:24;99586.19;;;9.36;100.00
48968;BME280;46511;53.148;8.204;2023-03-13T04:20:59;99565.72;;;9.26;100.00
48968;BME280;46511;53.148;8.204;2023-03-13T04:23:35;99561.47;;;9.36;100.00
48968;BME280;46511;53.148;8.204;2023-03-13T04:26:06;99555.56;;;9.32;100.00
48968;BME280;46511;53.148;8.204;2023-03-13T04:28:37;99560.50;;;9.50;100.00
48968;BME280;46511;53.148;8.204;2023-03-13T04:31:08;99559.97;;;9.57;100.00
48968;BME280;46511;53.148;8.204;2023-03-13T04:33:40;99565.94;;;9.72;100.00
48968;BME280;46511;53.148;8.204;2023-03-13T04:36:11;99546.09;;;9.41;100.00
48968;BME280;46511;53.148;8.204;2023-03-13T04:38:42;99554.09;;;9.65;100.00
48968;BME280;46511;53.148;8.204;2023-03-13T04:41:13;99547.72;;;9.67;100.00
48968;BME280;46511;53.148;8.204;2023-03-13T04:43:45;99558.94;;;9.71;100.00
48968;BME280;46511;53.148;8.204;2023-03-13T04:46:16;99558.66;;;9.63;100.00
48968;BME280;46511;53.148;8.204;2023-03-13T04:48:48;99541.53;;;9.80;100.00
48968;BME280;46511;53.148;8.204;2023-03-13T04:51:19;99535.88;;;9.60;100.00
48968;BME280;46511;53.148;8.204;2023-03-13T04:53:51;99528.03;;;9.59;100.00
48968;BME280;46511;53.148;8.204;2023-03-13T04:56:23;99527.56;;;9.65;100.00
48968;BME280;46511;53.148;8.204;2023-03-13T04:58:56;99524.91;;;9.65;100.00
48968;BME280;46511;53.148;8.204;2023-03-13T05:01:27;99511.56;;;9.90;100.00
48968;BME280;46511;53.148;8.204;2023-03-13T05:03:59;99505.47;;;9.77;100.00
48968;BME280;46511;53.148;8.204;2023-03-13T05:06:30;99507.81;;;10.17;100.00
48968;BME280;46511;53.148;8.204;2023-03-13T05:09:02;99500.25;;;9.99;100.00
48968;BME280;46511;53.148;8.204;2023-03-13T05:11:34;99493.66;;;10.05;100.00
48968;BME280;46511;53.148;8.204;2023-03-13T05:14:05;99493.03;;;10.25;100.00
48968;BME280;46511;53.148;8.204;2023-03-13T05:16:38;99485.28;;;10.22;100.00
48968;BME280;46511;53.148;8.204;2023-03-13T05:19:10;99482.91;;;10.30;100.00
48968;BME280;46511;53.148;8.204;2023-03-13T05:21:41;99475.59;;;10.45;100.00
48968;BME280;46511;53.148;8.204;2023-03-13T05:24:12;99463.28;;;10.44;100.00
48968;BME280;46511;53.148;8.204;2023-03-13T05:26:38;99463.34;;;10.32;100.00
48968;BME280;46511;53.148;8.204;2023-03-13T05:29:10;99462.31;;;10.68;100.00
48968;BME280;46511;53.148;8.204;2023-03-13T05:31:41;99463.41;;;10.65;100.00
48968;BME280;46511;53.148;8.204;2023-03-13T05:34:12;99461.84;;;10.63;100.00
48968;BME280;46511;53.148;8.204;2023-03-13T05:36:44;99454.59;;;10.65;100.00
48968;BME280;46511;53.148;8.204;2023-03-13T05:39:15;99448.06;;;11.02;100.00
48968;BME280;46511;53.148;8.204;2023-03-13T05:41:46;99442.16;;;10.99;100.00
48968;BME280;46511;53.148;8.204;2023-03-13T05:44:17;99437.44;;;11.02;100.00
48968;BME280;46511;53.148;8.204;2023-03-13T05:46:49;99427.06;;;10.88;100.00
48968;BME280;46511;53.148;8.204;2023-03-13T05:49:20;99420.41;;;11.05;100.00
48968;BME280;46511;53.148;8.204;2023-03-13T05:51:51;99415.69;;;11.08;100.00
48968;BME280;46511;53.148;8.204;2023-03-13T05:54:22;99407.97;;;11.05;100.00
48968;BME280;46511;53.148;8.204;2023-03-13T05:56:54;99400.94;;;11.15;100.00
48968;BME280;46511;53.148;8.204;2023-03-13T05:59:25;99410.34;;;11.31;100.00
48968;BME280;46511;53.148;8.204;2023-03-13T06:01:56;99392.72;;;11.07;100.00
48968;BME280;46511;53.148;8.204;2023-03-13T06:04:27;99393.66;;;11.18;100.00
48968;BME280;46511;53.148;8.204;2023-03-13T06:06:59;99392.44;;;11.33;100.00
48968;BME280;46511;53.148;8.204;2023-03-13T06:09:30;99381.88;;;11.42;100.00
48968;BME280;46511;53.148;8.204;2023-03-13T06:12:01;99380.38;;;11.61;100.00
48968;BME280;46511;53.148;8.204;2023-03-13T06:14:33;99373.38;;;11.60;100.00
48968;BME280;46511;53.148;8.204;2023-03-13T06:17:07;99365.91;;;11.86;100.00
48968;BME280;46511;53.148;8.204;2023-03-13T06:19:38;99371.72;;;11.80;100.00
48968;BME280;46511;53.148;8.204;2023-03-13T06:22:10;99366.78;;;11.75;100.00
48968;BME280;46511;53.148;8.204;2023-03-13T06:24:41;99388.91;;;11.76;100.00
48968;BME280;46511;53.148;8.204;2023-03-13T06:27:14;99373.88;;;11.86;100.00
48968;BME280;46511;53.148;8.204;2023-03-13T06:29:46;99366.88;;;11.85;100.00
48968;BME280;46511;53.148;8.204;2023-03-13T06:32:17;99366.22;;;12.13;100.00
48968;BME280;46511;53.148;8.204;2023-03-13T06:34:49;99370.66;;;12.13;100.00
48968;BME280;46511;53.148;8.204;2023-03-13T06:37:20;99365.09;;;12.16;100.00
48968;BME280;46511;53.148;8.204;2023-03-13T06:39:52;99358.38;;;12.21;100.00
48968;BME280;46511;53.148;8.204;2023-03-13T06:42:23;99367.03;;;12.35;100.00
48968;BME280;46511;53.148;8.204;2023-03-13T06:44:55;99362.91;;;12.30;100.00
48968;BME280;46511;53.148;8.204;2023-03-13T06:47:26;99361.13;;;12.41;100.00
48968;BME280;46511;53.148;8.204;2023-03-13T06:49:57;99345.25;;;12.29;100.00
48968;BME280;46511;53.148;8.204;2023-03-13T06:52:28;99352.78;;;12.45;100.00
48968;BME280;46511;53.148;8.204;2023-03-13T06:55:00;99336.28;;;12.30;100.00
48968;BME280;46511;53.148;8.204;2023-03-13T06:57:31;99351.81;;;12.56;100.00
48968;BME280;46511;53.148;8.204;2023-03-13T07:00:02;99328.53;;;12.48;100.00
48968;BME280;46511;53.148;8.204;2023-03-13T07:02:36;99341.06;;;12.67;100.00
48968;BME280;46511;53.148;8.204;2023-03-13T07:05:07;99334.53;;;12.81;100.00
48968;BME280;46511;53.148;8.204;2023-03-13T07:07:39;99332.75;;;12.51;100.00
48968;BME280;46511;53.148;8.204;2023-03-13T07:10:11;99355.53;;;12.74;100.00
48968;BME280;46511;53.148;8.204;2023-03-13T07:12:43;99345.75;;;12.84;100.00
48968;BME280;46511;53.148;8.204;2023-03-13T07:15:14;99349.41;;;12.83;100.00
48968;BME280;46511;53.148;8.204;2023-03-13T07:17:45;99352.19;;;12.72;100.00
48968;BME280;46511;53.148;8.204;2023-03-13T07:20:17;99342.09;;;12.85;100.00
48968;BME280;46511;53.148;8.204;2023-03-13T07:22:51;99357.50;;;12.72;100.00
48968;BME280;46511;53.148;8.204;2023-03-13T07:25:23;99348.06;;;12.68;100.00
48968;BME280;46511;53.148;8.204;2023-03-13T07:27:54;99356.69;;;12.81;100.00
48968;BME280;46511;53.148;8.204;2023-03-13T07:30:26;99344.88;;;12.74;100.00
48968;BME280;46511;53.148;8.204;2023-03-13T07:32:58;99368.75;;;12.85;100.00
48968;BME280;46511;53.148;8.204;2023-03-13T07:35:29;99344.94;;;13.03;100.00
48968;BME280;46511;53.148;8.204;2023-03-13T07:38:00;99361.22;;;12.91;100.00
48968;BME280;46511;53.148;8.204;2023-03-13T07:40:32;99345.25;;;13.10;100.00
48968;BME280;46511;53.148;8.204;2023-03-13T07:43:03;99339.63;;;13.13;100.00
48968;BME280;46511;53.148;8.204;2023-03-13T07:45:34;99344.25;;;13.11;100.00
48968;BME280;46511;53.148;8.204;2023-03-13T07:48:05;99340.34;;;13.15;100.00
48968;BME280;46511;53.148;8.204;2023-03-13T07:50:37;99347.47;;;13.05;100.00
48968;BME280;46511;53.148;8.204;2023-03-13T07:53:08;99348.97;;;13.28;100.00
48968;BME280;46511;53.148;8.204;2023-03-13T07:55:39;99336.56;;;13.08;100.00
48968;BME280;46511;53.148;8.204;2023-03-13T07:58:10;99344.88;;;13.24;100.00
48968;BME280;46511;53.148;8.204;2023-03-13T08:00:42;99328.16;;;13.32;100.00
48968;BME280;46511;53.148;8.204;2023-03-13T08:03:13;99330.00;;;13.31;100.00
48968;BME280;46511;53.148;8.204;2023-03-13T08:05:45;99327.31;;;13.22;100.00
48968;BME280;46511;53.148;8.204;2023-03-13T08:08:16;99333.16;;;13.06;100.00
48968;BME280;46511;53.148;8.204;2023-03-13T08:10:48;99330.66;;;13.14;100.00
48968;BME280;46511;53.148;8.204;2023-03-13T08:13:19;99328.94;;;12.94;100.00
48968;BME280;46511;53.148;8.204;2023-03-13T08:15:50;99343.97;;;13.14;100.00
48968;BME280;46511;53.148;8.204;2023-03-13T08:18:21;99333.75;;;13.09;100.00
48968;BME280;46511;53.148;8.204;2023-03-13T08:20:53;99332.91;;;13.09;100.00
48968;BME280;46511;53.148;8.204;2023-03-13T08:23:24;99332.63;;;13.12;100.00
48968;BME280;46511;53.148;8.204;2023-03-13T08:25:55;99332.50;;;13.23;100.00
48968;BME280;46511;53.148;8.204;2023-03-13T08:28:26;99323.63;;;13.13;100.00
48968;BME280;46511;53.148;8.204;2023-03-13T08:30:58;99344.97;;;13.13;100.00
48968;BME280;46511;53.148;8.204;2023-03-13T08:33:29;99330.44;;;13.36;100.00
48968;BME280;46511;53.148;8.204;2023-03-13T08:36:07;99337.16;;;13.40;100.00
48968;BME280;46511;53.148;8.204;2023-03-13T08:38:42;99318.63;;;13.68;100.00
48968;BME280;46511;53.148;8.204;2023-03-13T08:41:18;99309.94;;;13.56;100.00
48968;BME280;46511;53.148;8.204;2023-03-13T08:43:52;99306.81;;;13.61;100.00
48968;BME280;46511;53.148;8.204;2023-03-13T08:46:24;99315.53;;;13.53;100.00
48968;BME280;46511;53.148;8.204;2023-03-13T08:48:55;99309.09;;;13.36;100.00
48968;BME280;46511;53.148;8.204;2023-03-13T08:51:27;99334.94;;;13.46;100.00
48968;BME280;46511;53.148;8.204;2023-03-13T08:53:59;99314.66;;;13.82;100.00
48968;BME280;46511;53.148;8.204;2023-03-13T08:56:31;99316.63;;;13.70;100.00
48968;BME280;46511;53.148;8.204;2023-03-13T08:59:03;99313.81;;;13.81;100.00
48968;BME280;46511;53.148;8.204;2023-03-13T09:01:35;99317.19;;;13.93;100.00
48968;BME280;46511;53.148;8.204;2023-03-13T09:04:07;99308.59;;;13.89;100.00
48968;BME280;46511;53.148;8.204;2023-03-13T09:06:38;99314.97;;;13.69;100.00
48968;BME280;46511;53.148;8.204;2023-03-13T09:09:09;99318.75;;;13.76;100.00
48968;BME280;46511;53.148;8.204;2023-03-13T09:11:42;99338.69;;;13.72;100.00
48968;BME280;46511;53.148;8.204;2023-03-13T09:14:13;99328.56;;;13.85;100.00
48968;BME280;46511;53.148;8.204;2023-03-13T09:16:45;99337.28;;;13.87;100.00
48968;BME280;46511;53.148;8.204;2023-03-13T09:19:18;99339.53;;;13.43;100.00
48968;BME280;46511;53.148;8.204;2023-03-13T09:21:49;99348.97;;;13.48;100.00
48968;BME280;46511;53.148;8.204;2023-03-13T09:24:20;99340.81;;;13.59;100.00
48968;BME280;46511;53.148;8.204;2023-03-13T09:26:51;99342.47;;;13.89;100.00
48968;BME280;46511;53.148;8.204;2023-03-13T09:29:23;99336.53;;;14.05;100.00
48968;BME280;46511;53.148;8.204;2023-03-13T09:31:54;99338.44;;;14.69;100.00
48968;BME280;46511;53.148;8.204;2023-03-13T09:34:25;99322.38;;;14.78;100.00
48968;BME280;46511;53.148;8.204;2023-03-13T09:36:58;99322.22;;;14.80;100.00
48968;BME280;46511;53.148;8.204;2023-03-13T09:39:29;99320.81;;;14.76;100.00
48968;BME280;46511;53.148;8.204;2023-03-13T09:42:13;99311.97;;;14.93;100.00
48968;BME280;46511;53.148;8.204;2023-03-13T09:45:02;99308.84;;;14.52;100.00
48968;BME280;46511;53.148;8.204;2023-03-13T09:47:42;99301.59;;;14.90;100.00
48968;BME280;46511;53.148;8.204;2023-03-13T09:50:23;99294.72;;;15.23;100.00
48968;BME280;46511;53.148;8.204;2023-03-13T09:53:03;99297.25;;;14.89;100.00
48968;BME280;46511;53.148;8.204;2023-03-13T09:55:43;99287.06;;;14.75;100.00
48968;BME280;46511;53.148;8.204;2023-03-13T09:58:18;99282.75;;;14.64;100.00
48968;BME280;46511;53.148;8.204;2023-03-13T10:01:04;99267.81;;;14.71;100.00
48968;BME280;46511;53.148;8.204;2023-03-13T10:03:38;99294.56;;;14.89;100.00
48968;BME280;46511;53.148;8.204;2023-03-13T10:06:18;99278.22;;;14.92;100.00
48968;BME280;46511;53.148;8.204;2023-03-13T10:08:50;99287.41;;;15.07;100.00
48968;BME280;46511;53.148;8.204;2023-03-13T10:11:24;99267.22;;;14.95;100.00
48968;BME280;46511;53.148;8.204;2023-03-13T10:14:19;99280.75;;;15.11;100.00
48968;BME280;46511;53.148;8.204;2023-03-13T10:17:13;99281.19;;;15.42;100.00
48968;BME280;46511;53.148;8.204;2023-03-13T10:19:59;99273.41;;;16.27;100.00
48968;BME280;46511;53.148;8.204;2023-03-13T10:22:39;99284.53;;;16.06;100.00
48968;BME280;46511;53.148;8.204;2023-03-13T10:25:24;99267.84;;;15.86;100.00
48968;BME280;46511;53.148;8.204;2023-03-13T10:27:59;99239.66;;;16.08;100.00
48968;BME280;46511;53.148;8.204;2023-03-13T10:30:32;99285.06;;;15.84;100.00
48968;BME280;46511;53.148;8.204;2023-03-13T10:33:17;99253.88;;;16.85;100.00
48968;BME280;46511;53.148;8.204;2023-03-13T10:36:25;99255.66;;;16.60;100.00
48968;BME280;46511;53.148;8.204;2023-03-13T10:38:50;99253.41;;;16.39;100.00
48968;BME280;46511;53.148;8.204;2023-03-13T10:41:27;99263.31;;;16.55;100.00
48968;BME280;46511;53.148;8.204;2023-03-13T10:44:03;99265.66;;;16.58;100.00
48968;BME280;46511;53.148;8.204;2023-03-13T10:46:39;99259.34;;;16.59;100.00
48968;BME280;46511;53.148;8.204;2023-03-13T10:49:16;99273.50;;;16.09;100.00
48968;BME280;46511;53.148;8.204;2023-03-13T10:55:05;99235.53;;;16.14;100.00
48968;BME280;46511;53.148;8.204;2023-03-13T10:57:37;99248.53;;;16.85;100.00
48968;BME280;46511;53.148;8.204;2023-03-13T11:00:22;99252.25;;;16.58;100.00
48968;BME280;46511;53.148;8.204;2023-03-13T11:03:12;99300.44;;;17.51;100.00
48968;BME280;46511;53.148;8.204;2023-03-13T11:05:56;99246.22;;;19.74;100.00
48968;BME280;46511;53.148;8.204;2023-03-13T11:08:35;99242.88;;;18.41;100.00
48968;BME280;46511;53.148;8.204;2023-03-13T11:11:16;99249.59;;;17.08;100.00
48968;BME280;46511;53.148;8.204;2023-03-13T11:13:44;99260.91;;;16.70;100.00
48968;BME280;46511;53.148;8.204;2023-03-13T11:16:20;99264.84;;;16.49;100.00
48968;BME280;46511;53.148;8.204;2023-03-13T11:24:29;99253.69;;;16.36;100.00
48968;BME280;46511;53.148;8.204;2023-03-13T11:32:40;99232.25;;;16.70;100.00
48968;BME280;46511;53.148;8.204;2023-03-13T11:38:16;99233.66;;;17.31;100.00
48968;BME280;46511;53.148;8.204;2023-03-13T11:40:57;99220.56;;;16.88;100.00
48968;BME280;46511;53.148;8.204;2023-03-13T11:43:44;99213.97;;;18.74;100.00
48968;BME280;46511;53.148;8.204;2023-03-13T11:52:10;99206.03;;;21.04;100.00
48968;BME280;46511;53.148;8.204;2023-03-13T11:57:34;99160.00;;;23.51;80.25
48968;BME280;46511;53.148;8.204;2023-03-13T12:00:15;99201.44;;;20.17;94.41
48968;BME280;46511;53.148;8.204;2023-03-13T12:05:28;99186.78;;;22.19;79.42
48968;BME280;46511;53.148;8.204;2023-03-13T12:08:15;99170.44;;;22.06;80.04
48968;BME280;46511;53.148;8.204;2023-03-13T12:11:03;99144.22;;;22.47;78.00
48968;BME280;46511;53.148;8.204;2023-03-13T12:13:44;99154.13;;;21.58;81.92
48968;BME280;46511;53.148;8.204;2023-03-13T12:16:26;99155.44;;;20.55;94.20
48968;BME280;46511;53.148;8.204;2023-03-13T12:19:12;99147.00;;;19.63;100.00
48968;BME280;46511;53.148;8.204;2023-03-13T12:21:49;99148.28;;;21.05;87.64
48968;BME280;46511;53.148;8.204;2023-03-13T12:24:37;99135.94;;;21.17;88.15
48968;BME280;46511;53.148;8.204;2023-03-13T12:29:57;99146.16;;;20.58;93.96
48968;BME280;46511;53.148;8.204;2023-03-13T12:32:36;99142.59;;;22.73;75.51
48968;BME280;46511;53.148;8.204;2023-03-13T12:37:50;99115.50;;;21.08;81.83
48968;BME280;46511;53.148;8.204;2023-03-13T12:40:30;99102.59;;;20.24;88.36
48968;BME280;46511;53.148;8.204;2023-03-13T12:43:04;99113.19;;;21.26;85.84
48968;BME280;46511;53.148;8.204;2023-03-13T12:45:47;99113.31;;;20.54;89.46
48968;BME280;46511;53.148;8.204;2023-03-13T12:48:22;99090.56;;;21.06;85.78
48968;BME280;46511;53.148;8.204;2023-03-13T12:51:09;99084.03;;;20.36;87.14
48968;BME280;46511;53.148;8.204;2023-03-13T12:59:05;99040.88;;;21.63;80.72
48968;BME280;46511;53.148;8.204;2023-03-13T13:01:41;99087.16;;;20.54;87.75
48968;BME280;46511;53.148;8.204;2023-03-13T13:04:18;99061.91;;;21.05;85.36
48968;BME280;46511;53.148;8.204;2023-03-13T13:07:03;99062.69;;;23.17;67.91
48968;BME280;46511;53.148;8.204;2023-03-13T13:09:37;99068.09;;;23.17;67.27
48968;BME280;46511;53.148;8.204;2023-03-13T13:12:40;99055.59;;;20.98;78.57
48968;BME280;46511;53.148;8.204;2023-03-13T13:15:19;99055.09;;;21.78;76.54
48968;BME280;46511;53.148;8.204;2023-03-13T13:18:11;99049.03;;;21.07;75.15
48968;BME280;46511;53.148;8.204;2023-03-13T13:20:47;99052.41;;;20.88;79.00
48968;BME280;46511;53.148;8.204;2023-03-13T13:29:00;99025.56;;;21.35;70.05
48968;BME280;46511;53.148;8.204;2023-03-13T13:39:51;99017.00;;;20.12;82.05
48968;BME280;46511;53.148;8.204;2023-03-13T13:45:01;99046.81;;;22.54;60.86
48968;BME280;46511;53.148;8.204;2023-03-13T13:47:35;99049.56;;;20.68;68.68
48968;BME280;46511;53.148;8.204;2023-03-13T13:52:51;98998.13;;;21.86;63.99
48968;BME280;46511;53.148;8.204;2023-03-13T13:55:43;98990.63;;;20.71;71.07
48968;BME280;46511;53.148;8.204;2023-03-13T13:58:19;98998.25;;;20.25;75.59
48968;BME280;46511;53.148;8.204;2023-03-13T14:00:54;98990.13;;;20.18;79.11
48968;BME280;46511;53.148;8.204;2023-03-13T14:03:31;98986.66;;;20.03;83.24
48968;BME280;46511;53.148;8.204;2023-03-13T14:06:20;98991.13;;;21.44;73.01
48968;BME280;46511;53.148;8.204;2023-03-13T14:08:55;98987.44;;;20.89;79.02
48968;BME280;46511;53.148;8.204;2023-03-13T14:11:35;98984.09;;;21.56;70.84
48968;BME280;46511;53.148;8.204;2023-03-13T14:16:47;98974.22;;;21.29;76.04
48968;BME280;46511;53.148;8.204;2023-03-13T14:22:07;99004.16;;;21.88;72.45
48968;BME280;46511;53.148;8.204;2023-03-13T14:24:39;98977.47;;;21.59;69.38
48968;BME280;46511;53.148;8.204;2023-03-13T14:27:15;98954.50;;;20.72;79.81
48968;BME280;46511;53.148;8.204;2023-03-13T14:30:01;98972.25;;;20.17;83.52
48968;BME280;46511;53.148;8.204;2023-03-13T14:32:34;98968.97;;;19.79;86.86
48968;BME280;46511;53.148;8.204;2023-03-13T14:35:06;98966.38;;;20.29;88.82
48968;BME280;46511;53.148;8.204;2023-03-13T14:37:51;98965.56;;;21.12;80.63
48968;BME280;46511;53.148;8.204;2023-03-13T14:40:32;98975.78;;;19.60;87.61